createdAt,value
2022-12-31T00:00:18.355Z,99.99
2022-12-31T00:05:18.283Z,99.99
2022-12-31T00:10:18.233Z,99.99
2022-12-31T00:15:18.123Z,99.99
2022-12-31T00:20:18.072Z,99.99
2022-12-31T00:25:18.010Z,99.99
2022-12-31T00:30:17.943Z,99.99
2022-12-31T00:35:17.860Z,99.99
2022-12-31T00:40:17.848Z,99.99
2022-12-31T00:45:17.738Z,99.99
2022-12-31T00:50:17.675Z,99.99
2022-12-31T00:55:17.575Z,99.77
2022-12-31T01:00:17.558Z,99.88
2022-12-31T01:05:17.459Z,99.99
2022-12-31T01:10:17.420Z,99.99
2022-12-31T01:15:17.326Z,99.99
2022-12-31T01:20:17.300Z,99.99
2022-12-31T01:25:17.184Z,99.99
2022-12-31T01:30:17.140Z,99.99
2022-12-31T01:35:17.068Z,99.99
2022-12-31T01:40:17.024Z,99.99
2022-12-31T01:45:16.910Z,99.99
2022-12-31T01:50:16.871Z,99.99
2022-12-31T01:55:16.791Z,99.99
2022-12-31T02:00:16.772Z,99.99
2022-12-31T02:05:16.669Z,99.99
2022-12-31T02:10:16.608Z,99.99
2022-12-31T02:15:16.524Z,99.99
2022-12-31T02:20:16.484Z,99.67
2022-12-31T02:25:16.399Z,98.86
2022-12-31T02:30:16.400Z,98.10
2022-12-31T02:35:16.249Z,97.89
2022-12-31T02:40:16.207Z,98.20
2022-12-31T02:45:16.129Z,98.71
2022-12-31T02:50:16.109Z,98.71
2022-12-31T02:55:16.000Z,98.71
2022-12-31T03:00:15.953Z,98.20
2022-12-31T03:05:15.862Z,98.10
2022-12-31T03:10:15.825Z,97.55
2022-12-31T03:15:15.746Z,97.44
2022-12-31T03:20:15.683Z,97.14
2022-12-31T03:25:15.649Z,96.63
2022-12-31T03:30:15.530Z,96.53
2022-12-31T03:35:15.466Z,96.28
2022-12-31T03:40:15.417Z,96.18
2022-12-31T03:45:15.360Z,96.69
2022-12-31T03:50:15.276Z,97.04
2022-12-31T03:55:15.202Z,97.09
2022-12-31T04:00:15.177Z,97.44
2022-12-31T04:05:15.064Z,96.69
2022-12-31T04:10:15.037Z,96.28
2022-12-31T04:15:14.928Z,95.57
2022-12-31T04:20:14.877Z,94.61
2022-12-31T04:25:14.800Z,95.22
2022-12-31T04:30:14.782Z,94.92
2022-12-31T04:35:14.690Z,94.92
2022-12-31T04:40:14.622Z,95.22
2022-12-31T04:45:14.529Z,95.12
2022-12-31T04:50:14.509Z,95.22
2022-12-31T04:55:14.441Z,94.92
2022-12-31T05:00:14.358Z,94.61
2022-12-31T05:05:14.256Z,95.22
2022-12-31T05:10:14.231Z,95.02
2022-12-31T05:15:14.160Z,94.82
2022-12-31T05:20:14.106Z,94.92
2022-12-31T05:25:14.019Z,95.32
2022-12-31T05:30:13.972Z,95.42
2022-12-31T05:35:13.868Z,95.42
2022-12-31T05:40:13.814Z,95.42
2022-12-31T05:45:13.748Z,95.32
2022-12-31T05:50:13.665Z,95.12
2022-12-31T05:55:13.621Z,95.32
2022-12-31T06:00:13.570Z,94.92
2022-12-31T06:05:13.461Z,94.71
2022-12-31T06:10:13.432Z,94.06
2022-12-31T06:15:13.353Z,93.15
2022-12-31T06:20:13.547Z,92.94
2022-12-31T06:25:13.200Z,92.84
2022-12-31T06:30:13.164Z,92.94
2022-12-31T06:35:13.087Z,92.33
2022-12-31T06:40:13.042Z,91.78
2022-12-31T06:45:12.942Z,91.28
2022-12-31T06:50:12.899Z,90.53
2022-12-31T06:55:12.789Z,90.53
2022-12-31T07:00:12.755Z,90.12
2022-12-31T07:05:12.682Z,90.02
2022-12-31T07:10:12.635Z,90.02
2022-12-31T07:15:12.542Z,89.61
2022-12-31T07:20:12.508Z,89.17
2022-12-31T07:25:12.407Z,88.76
2022-12-31T07:30:12.393Z,88.86
2022-12-31T07:35:12.338Z,89.26
2022-12-31T07:40:12.226Z,88.35
2022-12-31T07:45:12.145Z,88.76
2022-12-31T07:50:12.098Z,88.66
2022-12-31T07:55:12.023Z,88.56
2022-12-31T08:00:11.974Z,88.35
2022-12-31T08:05:11.897Z,87.85
2022-12-31T08:10:17.518Z,87.95
2022-12-31T08:15:12.756Z,86.90
2022-12-31T08:20:11.685Z,86.90
2022-12-31T08:25:11.621Z,87.45
2022-12-31T08:30:11.599Z,87.34
2022-12-31T08:35:11.462Z,87.45
2022-12-31T08:40:11.427Z,87.00
2022-12-31T08:45:11.381Z,87.30
2022-12-31T08:50:11.295Z,87.74
2022-12-31T08:55:11.211Z,87.65
2022-12-31T09:00:11.184Z,87.74
2022-12-31T09:05:11.096Z,86.90
2022-12-31T09:10:11.037Z,87.34
2022-12-31T09:15:10.968Z,86.69
2022-12-31T09:20:10.931Z,86.59
2022-12-31T09:25:10.822Z,86.19
2022-12-31T09:30:10.800Z,85.88
2022-12-31T09:35:10.695Z,85.13
2022-12-31T09:40:10.643Z,83.68
2022-12-31T09:45:10.562Z,81.78
2022-12-31T09:50:10.522Z,80.53
2022-12-31T09:55:10.450Z,76.07
2022-12-31T10:00:10.354Z,76.61
2022-12-31T10:05:10.307Z,72.71
2022-12-31T10:10:10.262Z,70.50
2022-12-31T10:15:10.152Z,71.06
2022-12-31T10:20:10.108Z,75.26
2022-12-31T10:25:10.025Z,74.42
2022-12-31T10:30:10.242Z,76.10
2022-12-31T10:35:09.884Z,78.19
2022-12-31T10:40:09.845Z,79.58
2022-12-31T10:45:09.763Z,79.88
2022-12-31T10:50:09.691Z,79.79
2022-12-31T10:55:09.650Z,79.28
2022-12-31T11:00:09.591Z,79.82
2022-12-31T11:05:09.503Z,80.83
2022-12-31T11:10:09.465Z,79.92
2022-12-31T11:15:09.355Z,80.22
2022-12-31T11:20:09.304Z,80.46
2022-12-31T11:25:09.231Z,80.46
2022-12-31T11:30:09.178Z,80.16
2022-12-31T11:35:09.079Z,80.46
2022-12-31T11:40:09.041Z,80.16
2022-12-31T11:45:08.972Z,80.26
2022-12-31T11:50:08.888Z,79.62
2022-12-31T11:55:08.826Z,78.67
2022-12-31T12:00:08.777Z,78.03
2022-12-31T12:05:11.359Z,77.19
2022-12-31T12:10:08.639Z,77.08
2022-12-31T12:15:09.362Z,77.59
2022-12-31T12:20:08.518Z,76.34
2022-12-31T12:25:08.423Z,75.70
2022-12-31T12:30:08.395Z,75.46
2022-12-31T12:35:08.360Z,74.19
2022-12-31T12:40:08.268Z,74.05
2022-12-31T12:45:08.174Z,74.46
2022-12-31T12:50:08.110Z,74.66
2022-12-31T12:55:08.010Z,73.95
2022-12-31T13:00:07.993Z,74.05
2022-12-31T13:05:07.933Z,73.32
2022-12-31T13:10:07.866Z,73.61
2022-12-31T13:15:07.754Z,73.55
2022-12-31T13:20:07.725Z,74.05
2022-12-31T13:25:07.680Z,73.48
2022-12-31T13:30:07.721Z,73.48
2022-12-31T13:35:07.623Z,73.35
2022-12-31T13:40:07.599Z,72.85
2022-12-31T13:45:07.419Z,73.25
2022-12-31T13:50:12.610Z,72.44
2022-12-31T13:55:08.247Z,72.64
2022-12-31T14:00:07.231Z,73.68
2022-12-31T14:05:07.120Z,74.12
2022-12-31T14:10:07.056Z,74.26
2022-12-31T14:15:07.069Z,74.66
2022-12-31T14:20:06.902Z,75.47
2022-12-31T14:25:06.861Z,75.64
2022-12-31T14:30:06.755Z,75.84
2022-12-31T14:35:06.710Z,76.15
2022-12-31T14:40:06.686Z,76.79
2022-12-31T14:45:06.597Z,77.09
2022-12-31T14:50:06.503Z,77.84
2022-12-31T14:55:07.168Z,77.64
2022-12-31T15:00:06.363Z,77.67
2022-12-31T15:05:06.327Z,78.48
2022-12-31T15:10:06.257Z,78.21
2022-12-31T15:15:06.190Z,79.13
2022-12-31T15:20:10.110Z,79.16
2022-12-31T15:25:07.072Z,79.16
2022-12-31T15:30:05.968Z,79.71
2022-12-31T15:35:05.951Z,80.41
2022-12-31T15:40:05.831Z,80.25
2022-12-31T15:45:05.782Z,80.35
2022-12-31T15:50:05.706Z,80.35
2022-12-31T15:55:05.672Z,80.65
2022-12-31T16:00:05.576Z,80.19
2022-12-31T16:05:05.626Z,80.08
2022-12-31T16:10:05.453Z,79.98
2022-12-31T16:15:05.417Z,79.58
2022-12-31T16:20:05.331Z,79.58
2022-12-31T16:25:30.560Z,79.38
2022-12-31T16:30:06.223Z,79.58
2022-12-31T16:35:12.049Z,79.41
2022-12-31T16:40:06.058Z,79.61
2022-12-31T16:45:04.996Z,79.92
2022-12-31T16:50:04.907Z,79.85
2022-12-31T16:55:04.877Z,79.85
2022-12-31T17:00:04.798Z,80.06
2022-12-31T17:05:04.719Z,79.96
2022-12-31T17:10:04.662Z,79.85
2022-12-31T17:15:04.592Z,79.75
2022-12-31T17:20:04.490Z,79.79
2022-12-31T17:25:04.526Z,80.10
2022-12-31T17:30:04.385Z,80.40
2022-12-31T17:35:04.339Z,80.30
2022-12-31T17:40:48.806Z,80.10
2022-12-31T17:45:05.221Z,80.19
2022-12-31T17:50:04.122Z,79.90
2022-12-31T17:55:04.062Z,79.59
2022-12-31T18:00:03.984Z,79.38
2022-12-31T18:05:03.928Z,78.88
2022-12-31T18:10:03.867Z,78.06
2022-12-31T18:15:03.814Z,77.93
2022-12-31T18:20:05.217Z,78.06
2022-12-31T18:25:03.676Z,78.06
2022-12-31T18:30:06.088Z,78.06
2022-12-31T18:35:03.553Z,78.17
2022-12-31T18:40:03.456Z,78.06
2022-12-31T18:45:03.422Z,77.15
2022-12-31T18:50:03.348Z,76.95
2022-12-31T18:55:03.268Z,76.24
2022-12-31T19:00:03.207Z,76.44
2022-12-31T19:05:03.175Z,76.24
2022-12-31T19:10:03.057Z,75.97
2022-12-31T19:15:03.027Z,75.36
2022-12-31T19:20:02.934Z,75.02
2022-12-31T19:25:02.899Z,74.41
2022-12-31T19:30:02.833Z,74.65
2022-12-31T19:35:04.103Z,74.14
2022-12-31T19:40:02.661Z,74.65
2022-12-31T19:45:02.659Z,73.83
2022-12-31T19:50:02.544Z,72.38
2022-12-31T19:55:02.482Z,72.17
2022-12-31T20:00:02.426Z,71.77
2022-12-31T20:05:02.355Z,71.97
2022-12-31T20:10:02.273Z,71.77
2022-12-31T20:15:02.218Z,71.26
2022-12-31T20:20:02.178Z,70.76
2022-12-31T20:25:02.902Z,70.04
2022-12-31T20:30:02.013Z,70.45
2022-12-31T20:35:01.993Z,70.86
2022-12-31T20:40:01.871Z,70.08
2022-12-31T20:45:01.831Z,69.95
2022-12-31T20:50:11.406Z,70.68
2022-12-31T20:55:02.696Z,70.68
2022-12-31T21:00:01.615Z,72.04
2022-12-31T21:05:01.740Z,72.38
2022-12-31T21:10:01.461Z,73.19
2022-12-31T21:15:01.494Z,72.89
2022-12-31T21:20:01.328Z,72.72
2022-12-31T21:25:01.302Z,72.78
2022-12-31T21:30:18.123Z,72.48
2022-12-31T21:35:40.370Z,73.84
2022-12-31T21:40:02.049Z,74.38
2022-12-31T21:45:01.056Z,74.89
2022-12-31T21:50:00.924Z,74.72
2022-12-31T21:55:00.893Z,73.97
2022-12-31T22:00:32.094Z,75.74
2022-12-31T22:05:03.093Z,76.79
2022-12-31T22:10:00.671Z,78.36
2022-12-31T22:15:14.490Z,78.50
2022-12-31T22:25:01.476Z,79.55
2022-12-31T22:30:00.407Z,80.20
2022-12-31T22:35:00.352Z,80.85
2022-12-31T22:40:00.290Z,80.91
2022-12-31T22:45:00.216Z,80.85
2022-12-31T22:50:00.155Z,81.26
2022-12-31T22:55:00.113Z,80.55
2022-12-31T22:59:59.996Z,80.65
2022-12-31T23:05:15.742Z,80.34
2022-12-31T23:10:00.879Z,80.65
2022-12-31T23:14:59.812Z,80.38
2022-12-31T23:19:59.736Z,79.83
2022-12-31T23:24:59.680Z,78.37
2022-12-31T23:29:59.603Z,78.77
2022-12-31T23:35:02.235Z,77.41
2022-12-31T23:40:00.483Z,77.86
2022-12-31T23:44:59.405Z,77.75
2022-12-31T23:49:59.336Z,76.93
2022-12-31T23:54:59.284Z,77.65
2022-12-31T23:59:59.232Z,77.25
